createdAt,value
2019-06-15T00:00:29.213Z,4.62
2019-06-15T00:02:58.121Z,5.35
2019-06-15T00:05:26.994Z,5.30
2019-06-15T00:07:55.914Z,4.80
2019-06-15T00:10:24.780Z,4.70
2019-06-15T00:12:53.662Z,5.12
2019-06-15T00:15:22.572Z,5.03
2019-06-15T00:17:51.488Z,5.35
2019-06-15T00:20:20.436Z,5.03
2019-06-15T00:22:49.338Z,5.15
2019-06-15T00:25:18.254Z,5.67
2019-06-15T00:27:47.149Z,6.35
2019-06-15T00:30:16.060Z,6.40
2019-06-15T00:32:44.984Z,7.33
2019-06-15T00:35:13.878Z,7.40
2019-06-15T00:37:42.762Z,6.85
2019-06-15T00:40:11.705Z,7.47
2019-06-15T00:42:40.594Z,9.13
2019-06-15T00:45:09.491Z,9.38
2019-06-15T00:47:38.364Z,9.78
2019-06-15T00:50:07.397Z,10.53
2019-06-15T00:52:36.285Z,11.12
2019-06-15T00:55:05.298Z,11.00
2019-06-15T00:57:34.318Z,11.63
2019-06-15T01:00:03.154Z,12.15
2019-06-15T01:02:32.062Z,12.33
2019-06-15T01:05:00.974Z,13.80
2019-06-15T01:07:29.878Z,12.53
2019-06-15T01:09:58.795Z,13.05
2019-06-15T01:12:27.688Z,12.50
2019-06-15T01:14:56.612Z,13.28
2019-06-15T01:17:25.517Z,13.28
2019-06-15T01:19:54.449Z,12.53
2019-06-15T01:22:23.326Z,13.30
2019-06-15T01:25:04.941Z,12.98
2019-06-15T01:27:21.190Z,13.40
2019-06-15T01:29:50.090Z,14.38
2019-06-15T01:32:19.005Z,14.00
2019-06-15T01:34:47.898Z,13.90
2019-06-15T01:37:16.780Z,13.95
2019-06-15T01:39:45.694Z,13.58
2019-06-15T01:42:14.587Z,14.35
2019-06-15T01:44:43.500Z,14.83
2019-06-15T01:47:12.388Z,14.30
2019-06-15T01:49:41.308Z,15.05
2019-06-15T01:52:10.225Z,14.78
2019-06-15T01:54:39.132Z,14.78
2019-06-15T01:57:08.087Z,14.85
2019-06-15T01:59:36.990Z,15.58
2019-06-15T02:02:05.935Z,14.50
2019-06-15T02:04:34.849Z,17.00
2019-06-15T02:07:03.782Z,15.98
2019-06-15T02:09:32.666Z,16.55
2019-06-15T02:12:01.591Z,16.57
2019-06-15T02:14:30.518Z,16.27
2019-06-15T02:16:59.431Z,16.65
2019-06-15T02:19:28.476Z,16.25
2019-06-15T02:21:57.320Z,16.45
2019-06-15T02:24:26.218Z,21.17
2019-06-15T02:26:55.125Z,18.30
2019-06-15T02:29:24.010Z,17.52
2019-06-15T02:31:53.003Z,18.42
2019-06-15T02:34:21.874Z,19.35
2019-06-15T02:36:50.777Z,20.95
2019-06-15T02:39:19.672Z,22.67
2019-06-15T02:41:48.551Z,22.70
2019-06-15T02:44:17.520Z,22.02
2019-06-15T02:46:46.847Z,21.07
2019-06-15T02:49:15.729Z,22.40
2019-06-15T02:51:44.623Z,23.07
2019-06-15T02:54:13.524Z,23.55
2019-06-15T02:56:42.413Z,24.20
2019-06-15T02:59:11.311Z,25.27
2019-06-15T03:01:40.195Z,26.30
2019-06-15T03:04:09.163Z,26.60
2019-06-15T03:06:38.024Z,26.33
2019-06-15T03:09:07.011Z,27.13
2019-06-15T03:11:35.935Z,33.30
2019-06-15T03:14:05.405Z,28.05
2019-06-15T03:16:34.323Z,28.92
2019-06-15T03:19:03.226Z,28.60
2019-06-15T03:21:32.115Z,28.47
2019-06-15T03:24:01.017Z,29.42
2019-06-15T03:26:29.910Z,28.90
2019-06-15T03:28:58.826Z,28.42
2019-06-15T03:31:27.705Z,30.02
2019-06-15T03:33:56.622Z,29.98
2019-06-15T03:36:25.517Z,29.72
2019-06-15T03:38:54.431Z,32.58
2019-06-15T03:41:23.377Z,31.70
2019-06-15T03:43:52.277Z,30.90
2019-06-15T03:46:21.168Z,30.37
2019-06-15T03:48:50.059Z,30.75
2019-06-15T03:51:18.936Z,30.35
2019-06-15T03:53:47.867Z,32.15
2019-06-15T03:56:21.755Z,30.53
2019-06-15T03:58:45.651Z,31.55
2019-06-15T04:01:27.178Z,32.17
2019-06-15T04:03:56.059Z,30.70
2019-06-15T04:06:24.968Z,31.43
2019-06-15T04:08:53.920Z,31.75
2019-06-15T04:11:22.813Z,31.97
2019-06-15T04:13:51.738Z,41.53
2019-06-15T04:16:20.624Z,33.65
2019-06-15T04:18:49.541Z,32.85
2019-06-15T04:21:18.451Z,32.47
2019-06-15T04:23:47.349Z,32.53
2019-06-15T04:26:16.254Z,32.40
2019-06-15T04:28:45.141Z,35.30
2019-06-15T04:31:14.090Z,34.13
2019-06-15T04:33:43.009Z,35.23
2019-06-15T04:36:11.919Z,35.90
2019-06-15T04:38:40.822Z,36.87
2019-06-15T04:41:09.854Z,38.53
2019-06-15T04:43:38.697Z,39.60
2019-06-15T04:46:07.661Z,49.65
2019-06-15T04:48:36.564Z,50.23
2019-06-15T04:51:05.620Z,42.90
2019-06-15T04:53:34.533Z,42.13
2019-06-15T04:56:03.450Z,43.00
2019-06-15T04:58:32.328Z,46.37
2019-06-15T05:01:01.283Z,47.45
2019-06-15T05:03:30.177Z,48.35
2019-06-15T05:05:59.067Z,49.50
2019-06-15T05:08:27.984Z,48.45
2019-06-15T05:10:59.940Z,49.33
2019-06-15T05:13:25.787Z,49.48
2019-06-15T05:15:54.686Z,48.55
2019-06-15T05:18:23.607Z,48.90
2019-06-15T05:20:52.553Z,49.40
2019-06-15T05:23:21.405Z,49.23
2019-06-15T05:25:50.326Z,46.08
2019-06-15T05:28:19.215Z,45.30
2019-06-15T05:30:48.133Z,45.10
2019-06-15T05:33:17.063Z,44.53
2019-06-15T05:35:45.963Z,47.27
2019-06-15T05:38:14.868Z,45.67
2019-06-15T05:40:43.746Z,44.30
2019-06-15T05:43:12.680Z,45.60
2019-06-15T05:45:41.610Z,45.33
2019-06-15T05:48:10.506Z,57.80
2019-06-15T05:50:39.402Z,48.17
2019-06-15T05:53:08.480Z,45.00
2019-06-15T05:55:37.361Z,45.17
2019-06-15T05:58:06.255Z,43.92
2019-06-15T06:00:35.178Z,43.80
2019-06-15T06:03:04.116Z,42.80
2019-06-15T06:05:33.041Z,42.73
2019-06-15T06:08:01.935Z,43.25
2019-06-15T06:10:30.858Z,43.33
2019-06-15T06:12:59.764Z,41.63
2019-06-15T06:15:28.676Z,42.83
2019-06-15T06:17:57.574Z,42.50
2019-06-15T06:20:26.464Z,41.95
2019-06-15T06:22:55.358Z,40.30
2019-06-15T06:25:24.277Z,40.60
2019-06-15T06:27:53.175Z,41.37
2019-06-15T06:30:22.076Z,38.83
2019-06-15T06:32:51.023Z,38.33
2019-06-15T06:35:19.892Z,39.27
2019-06-15T06:37:48.768Z,38.73
2019-06-15T06:40:17.687Z,35.10
2019-06-15T06:42:46.593Z,35.48
2019-06-15T06:45:15.513Z,35.80
2019-06-15T06:47:44.423Z,36.83
2019-06-15T06:50:13.366Z,35.77
2019-06-15T06:52:42.274Z,36.37
2019-06-15T06:55:11.173Z,35.52
2019-06-15T06:57:52.360Z,34.67
2019-06-15T07:00:09.043Z,34.58
2019-06-15T07:02:37.963Z,33.45
2019-06-15T07:05:06.973Z,33.00
2019-06-15T07:07:35.902Z,32.45
2019-06-15T07:10:05.441Z,31.15
2019-06-15T07:12:34.425Z,30.57
2019-06-15T07:15:04.860Z,29.63
2019-06-15T07:17:32.285Z,28.50
2019-06-15T07:20:01.226Z,33.20
2019-06-15T07:22:30.178Z,27.87
2019-06-15T07:24:59.028Z,27.13
2019-06-15T07:27:28.131Z,27.25
2019-06-15T07:29:57.048Z,27.75
2019-06-15T07:32:25.951Z,27.67
2019-06-15T07:34:54.847Z,26.57
2019-06-15T07:37:23.758Z,26.62
2019-06-15T07:39:52.693Z,26.52
2019-06-15T07:42:21.696Z,27.32
2019-06-15T07:44:50.590Z,26.55
2019-06-15T07:47:19.578Z,25.97
2019-06-15T07:49:48.432Z,26.42
2019-06-15T07:52:17.338Z,30.45
2019-06-15T07:54:46.273Z,26.80
2019-06-15T07:57:15.197Z,26.93
2019-06-15T07:59:44.107Z,25.77
2019-06-15T08:02:13.029Z,26.60
2019-06-15T08:04:41.949Z,25.10
2019-06-15T08:07:10.840Z,25.95
2019-06-15T08:09:39.735Z,23.73
2019-06-15T08:12:08.667Z,21.80
2019-06-15T08:14:37.574Z,20.02
2019-06-15T08:17:06.640Z,17.65
2019-06-15T08:19:35.508Z,17.02
2019-06-15T08:22:04.385Z,16.48
2019-06-15T08:24:33.279Z,14.58
2019-06-15T08:27:02.216Z,15.15
2019-06-15T08:29:31.089Z,13.25
2019-06-15T08:32:00.026Z,12.45
2019-06-15T08:34:33.887Z,12.05
2019-06-15T08:37:03.190Z,10.23
2019-06-15T08:39:32.727Z,9.85
2019-06-15T08:42:14.378Z,9.65
2019-06-15T08:44:42.111Z,8.18
2019-06-15T08:47:16.094Z,8.45
2019-06-15T08:49:48.357Z,8.50
2019-06-15T08:52:20.058Z,7.20
2019-06-15T08:54:49.303Z,6.92
2019-06-15T08:57:18.547Z,6.05
2019-06-15T08:59:47.796Z,6.20
2019-06-15T09:02:17.338Z,6.50
2019-06-15T09:04:46.661Z,6.08
2019-06-15T09:07:18.168Z,6.35
2019-06-15T09:09:47.457Z,6.87
2019-06-15T09:12:16.647Z,8.20
2019-06-15T09:14:45.796Z,9.38
2019-06-15T09:17:15.123Z,9.60
2019-06-15T09:19:46.946Z,10.05
2019-06-15T09:22:16.131Z,10.50
2019-06-15T09:24:45.285Z,11.08
2019-06-15T09:27:14.820Z,13.97
2019-06-15T09:29:43.959Z,12.80
2019-06-15T09:32:13.086Z,13.40
2019-06-15T09:34:42.327Z,13.30
2019-06-15T09:37:19.844Z,14.40
2019-06-15T09:39:49.208Z,14.63
2019-06-15T09:42:20.985Z,16.37
2019-06-15T09:44:50.084Z,16.15
2019-06-15T09:47:23.932Z,14.25
2019-06-15T09:49:53.135Z,13.98
2019-06-15T09:52:25.097Z,13.50
2019-06-15T09:54:54.204Z,12.75
2019-06-15T09:57:32.025Z,11.20
2019-06-15T10:00:01.130Z,11.35
2019-06-15T10:02:30.936Z,9.00
2019-06-15T10:05:02.847Z,9.50
2019-06-15T10:07:34.963Z,8.48
2019-06-15T10:10:11.595Z,8.05
2019-06-15T10:12:43.310Z,6.05
2019-06-15T10:15:14.413Z,6.70
2019-06-15T10:17:46.266Z,6.33
2019-06-15T10:20:20.128Z,7.03
2019-06-15T10:22:47.204Z,6.30
2019-06-15T10:25:16.403Z,5.28
2019-06-15T10:27:58.251Z,4.47
2019-06-15T10:30:25.756Z,3.58
2019-06-15T10:32:56.760Z,3.05
2019-06-15T10:35:27.743Z,3.00
2019-06-15T10:38:12.754Z,3.20
2019-06-15T10:40:41.933Z,2.17
2019-06-15T10:43:15.711Z,2.22
2019-06-15T10:45:45.636Z,2.33
2019-06-15T10:48:14.753Z,2.00
2019-06-15T10:50:53.536Z,2.30
2019-06-15T10:53:20.375Z,1.95
2019-06-15T10:55:49.739Z,1.98
2019-06-15T10:58:19.117Z,1.90
2019-06-15T11:01:10.530Z,1.80
2019-06-15T11:03:45.636Z,2.10
2019-06-15T11:06:14.918Z,1.60
2019-06-15T11:08:44.453Z,2.00
2019-06-15T11:11:21.981Z,2.25
2019-06-15T11:13:53.757Z,1.92
2019-06-15T11:16:26.209Z,1.95
2019-06-15T11:18:55.315Z,1.90
2019-06-15T11:21:25.104Z,1.80
2019-06-15T11:23:56.997Z,1.90
2019-06-15T11:26:30.296Z,2.00
2019-06-15T11:29:01.928Z,1.90
2019-06-15T11:31:33.993Z,2.00
2019-06-15T11:34:04.218Z,2.00
2019-06-15T11:36:33.269Z,1.92
2019-06-15T11:39:06.660Z,2.40
2019-06-15T11:41:36.041Z,2.27
2019-06-15T11:44:05.347Z,2.33
2019-06-15T11:46:34.645Z,2.10
2019-06-15T11:49:04.223Z,2.55
2019-06-15T11:51:35.417Z,2.30
2019-06-15T11:54:04.831Z,2.30
2019-06-15T11:56:33.974Z,2.20
2019-06-15T11:59:03.321Z,2.70
2019-06-15T12:01:32.472Z,2.77
2019-06-15T12:04:01.875Z,3.60
2019-06-15T12:06:36.182Z,3.62
2019-06-15T12:09:07.947Z,3.45
2019-06-15T12:11:39.643Z,4.05
2019-06-15T12:14:09.080Z,4.08
2019-06-15T12:16:38.579Z,4.03
2019-06-15T12:19:10.628Z,3.98
2019-06-15T12:21:40.054Z,4.35
2019-06-15T12:24:09.409Z,3.77
2019-06-15T12:26:38.581Z,3.87
2019-06-15T12:29:08.035Z,3.85
2019-06-15T12:31:39.823Z,3.85
2019-06-15T12:34:12.402Z,4.08
2019-06-15T12:36:41.633Z,3.62
2019-06-15T12:39:11.205Z,3.70
2019-06-15T12:41:43.636Z,3.95
2019-06-15T12:44:13.010Z,4.00
2019-06-15T12:46:42.325Z,3.75
2019-06-15T12:49:14.115Z,3.62
2019-06-15T12:51:51.313Z,4.50
2019-06-15T12:54:20.507Z,4.03
2019-06-15T12:56:49.606Z,3.85
2019-06-15T12:59:24.115Z,3.95
2019-06-15T13:01:55.678Z,4.45
2019-06-15T13:04:26.361Z,3.95
2019-06-15T13:06:55.814Z,3.58
2019-06-15T13:09:28.257Z,4.30
2019-06-15T13:12:00.693Z,4.03
2019-06-15T13:14:32.602Z,3.80
2019-06-15T13:17:04.945Z,3.70
2019-06-15T13:19:36.055Z,4.15
2019-06-15T13:22:06.429Z,3.10
2019-06-15T13:24:37.421Z,3.60
2019-06-15T13:27:07.039Z,3.72
2019-06-15T13:29:36.113Z,3.22
2019-06-15T13:32:05.692Z,3.33
2019-06-15T13:34:35.320Z,3.60
2019-06-15T13:37:04.607Z,3.37
2019-06-15T13:39:35.981Z,3.77
2019-06-15T13:42:09.867Z,3.65
2019-06-15T13:44:36.654Z,3.40
2019-06-15T13:47:09.247Z,3.58
2019-06-15T13:49:41.207Z,4.22
2019-06-15T13:52:10.462Z,3.60
2019-06-15T13:54:42.027Z,3.50
2019-06-15T13:57:11.429Z,4.00
2019-06-15T13:59:44.272Z,3.83
2019-06-15T14:02:13.421Z,4.00
2019-06-15T14:04:48.250Z,4.30
2019-06-15T14:07:20.921Z,4.33
2019-06-15T14:09:49.891Z,4.55
2019-06-15T14:12:19.147Z,4.60
2019-06-15T14:14:51.022Z,5.42
2019-06-15T14:17:25.538Z,3.90
2019-06-15T14:19:56.780Z,6.17
2019-06-15T14:22:24.252Z,5.35
2019-06-15T14:25:01.892Z,4.95
2019-06-15T14:27:31.269Z,4.83
2019-06-15T14:30:02.949Z,4.92
2019-06-15T14:32:32.115Z,4.55
2019-06-15T14:35:02.650Z,4.67
2019-06-15T14:37:37.682Z,5.30
2019-06-15T14:40:20.781Z,5.60
2019-06-15T14:42:51.959Z,5.70
2019-06-15T14:45:21.322Z,5.90
2019-06-15T14:47:51.193Z,6.22
2019-06-15T14:50:22.882Z,7.33
2019-06-15T14:52:55.154Z,6.83
2019-06-15T14:55:26.272Z,8.65
2019-06-15T14:57:55.947Z,9.15
2019-06-15T15:00:27.514Z,8.93
2019-06-15T15:02:57.455Z,8.80
2019-06-15T15:05:27.534Z,8.38
2019-06-15T15:08:01.107Z,7.87
2019-06-15T15:10:30.296Z,7.95
2019-06-15T15:13:03.109Z,7.50
2019-06-15T15:15:32.632Z,8.20
2019-06-15T15:18:02.211Z,7.97
2019-06-15T15:20:36.363Z,7.50
2019-06-15T15:23:14.247Z,7.50
2019-06-15T15:25:43.680Z,8.08
2019-06-15T15:28:17.311Z,7.65
2019-06-15T15:30:46.539Z,6.35
2019-06-15T15:33:15.859Z,6.15
2019-06-15T15:35:46.633Z,6.20
2019-06-15T15:38:14.130Z,5.83
2019-06-15T15:40:46.823Z,5.15
2019-06-15T15:43:15.995Z,5.53
2019-06-15T15:45:46.086Z,5.20
2019-06-15T15:48:13.636Z,6.03
2019-06-15T15:50:42.861Z,6.22
2019-06-15T15:53:12.091Z,6.12
2019-06-15T15:55:41.474Z,6.58
2019-06-15T15:58:16.481Z,6.03
2019-06-15T16:00:40.567Z,6.55
2019-06-15T16:03:10.052Z,6.53
2019-06-15T16:05:39.194Z,6.75
2019-06-15T16:08:09.007Z,6.90
2019-06-15T16:10:38.089Z,6.62
2019-06-15T16:13:09.893Z,7.10
2019-06-15T16:15:46.110Z,6.97
2019-06-15T16:18:17.159Z,7.17
2019-06-15T16:20:43.420Z,7.10
2019-06-15T16:23:12.281Z,6.80
2019-06-15T16:25:41.188Z,5.87
2019-06-15T16:28:10.174Z,6.15
2019-06-15T16:31:00.632Z,6.55
2019-06-15T16:33:08.282Z,6.30
2019-06-15T16:35:37.047Z,7.00
2019-06-15T16:38:06.889Z,7.10
2019-06-15T16:40:38.890Z,6.58
2019-06-15T16:43:07.938Z,7.72
2019-06-15T16:45:36.812Z,7.92
2019-06-15T16:48:06.367Z,7.62
2019-06-15T16:50:36.561Z,8.40
2019-06-15T16:53:03.808Z,7.40
2019-06-15T16:55:32.711Z,7.85
2019-06-15T16:58:01.605Z,7.80
2019-06-15T17:00:32.795Z,7.40
2019-06-15T17:02:59.423Z,7.65
2019-06-15T17:05:28.315Z,8.13
2019-06-15T17:07:57.205Z,8.23
2019-06-15T17:10:36.254Z,9.23
2019-06-15T17:13:06.773Z,8.15
2019-06-15T17:15:36.881Z,7.00
2019-06-15T17:18:03.379Z,9.08
2019-06-15T17:20:36.017Z,8.45
2019-06-15T17:23:02.959Z,8.33
2019-06-15T17:25:31.850Z,8.85
2019-06-15T17:28:00.765Z,8.80
2019-06-15T17:30:29.668Z,9.40
2019-06-15T17:32:58.572Z,8.63
2019-06-15T17:35:27.477Z,8.78
2019-06-15T17:37:56.536Z,7.33
2019-06-15T17:40:26.836Z,8.35
2019-06-15T17:42:54.187Z,8.13
2019-06-15T17:45:23.078Z,7.95
2019-06-15T17:47:51.995Z,7.33
2019-06-15T17:50:22.582Z,8.30
2019-06-15T17:52:51.463Z,7.37
2019-06-15T17:55:20.402Z,7.00
2019-06-15T17:57:49.301Z,8.30
2019-06-15T18:00:18.226Z,6.85
2019-06-15T18:02:47.131Z,6.83
2019-06-15T18:05:17.966Z,6.75
2019-06-15T18:07:46.978Z,8.10
2019-06-15T18:10:15.931Z,7.40
2019-06-15T18:12:42.776Z,7.60
2019-06-15T18:15:11.676Z,8.23
2019-06-15T18:17:40.589Z,6.97
2019-06-15T18:20:09.740Z,7.55
2019-06-15T18:22:38.633Z,7.28
2019-06-15T18:25:07.730Z,7.28
2019-06-15T18:27:37.224Z,7.75
2019-06-15T18:30:06.528Z,6.33
2019-06-15T18:32:37.662Z,7.12
2019-06-15T18:35:06.023Z,8.33
2019-06-15T18:37:32.531Z,7.45
2019-06-15T18:40:01.457Z,8.38
2019-06-15T18:42:30.339Z,7.30
2019-06-15T18:44:59.221Z,7.72
2019-06-15T18:47:28.145Z,7.53
2019-06-15T18:49:57.069Z,7.50
2019-06-15T18:52:26.581Z,7.70
2019-06-15T18:54:56.031Z,6.83
2019-06-15T18:57:23.822Z,7.10
2019-06-15T18:59:52.683Z,6.83
2019-06-15T19:02:21.579Z,6.12
2019-06-15T19:04:50.469Z,6.58
2019-06-15T19:07:19.373Z,6.50
2019-06-15T19:09:48.336Z,6.20
2019-06-15T19:12:20.677Z,6.62
2019-06-15T19:14:47.058Z,5.78
2019-06-15T19:17:16.492Z,6.20
2019-06-15T19:19:46.640Z,5.47
2019-06-15T19:22:12.780Z,5.78
2019-06-15T19:24:41.711Z,5.10
2019-06-15T19:27:10.624Z,4.87
2019-06-15T19:29:39.520Z,4.20
2019-06-15T19:32:08.560Z,4.60
2019-06-15T19:34:46.348Z,4.78
2019-06-15T19:37:06.831Z,4.65
2019-06-15T19:39:36.909Z,4.15
2019-06-15T19:42:04.176Z,4.62
2019-06-15T19:44:33.081Z,4.05
2019-06-15T19:47:02.008Z,4.00
2019-06-15T19:49:30.882Z,4.12
2019-06-15T19:51:59.809Z,3.50
2019-06-15T19:54:28.679Z,3.60
2019-06-15T19:56:57.593Z,3.95
2019-06-15T19:59:26.494Z,4.25
2019-06-15T20:01:55.384Z,4.58
2019-06-15T20:04:24.283Z,3.87
2019-06-15T20:06:53.158Z,4.58
2019-06-15T20:09:22.058Z,4.15
2019-06-15T20:11:50.944Z,3.60
2019-06-15T20:14:19.879Z,4.00
2019-06-15T20:16:48.799Z,3.72
2019-06-15T20:19:17.786Z,4.00
2019-06-15T20:21:46.572Z,3.90
2019-06-15T20:24:16.180Z,3.92
2019-06-15T20:26:44.393Z,4.12
2019-06-15T20:29:13.318Z,3.92
2019-06-15T20:31:42.205Z,4.72
2019-06-15T20:34:11.106Z,4.10
2019-06-15T20:36:40.026Z,4.20
2019-06-15T20:39:08.970Z,4.70
2019-06-15T20:41:37.876Z,4.70
2019-06-15T20:44:06.824Z,3.80
2019-06-15T20:46:37.136Z,3.87
2019-06-15T20:49:06.549Z,4.03
2019-06-15T20:51:33.578Z,4.30
2019-06-15T20:54:02.473Z,4.40
2019-06-15T20:56:31.365Z,4.33
2019-06-15T20:59:00.258Z,4.60
2019-06-15T21:01:29.159Z,3.98
2019-06-15T21:03:58.052Z,4.45
2019-06-15T21:06:26.955Z,4.70
2019-06-15T21:08:55.882Z,5.03
2019-06-15T21:11:26.555Z,4.80
2019-06-15T21:13:55.789Z,4.80
2019-06-15T21:16:22.578Z,5.40
2019-06-15T21:18:51.501Z,5.58
2019-06-15T21:21:20.377Z,5.22
2019-06-15T21:23:49.282Z,5.03
2019-06-15T21:26:18.171Z,4.47
2019-06-15T21:28:47.054Z,4.75
2019-06-15T21:31:16.710Z,5.33
2019-06-15T21:33:46.799Z,5.00
2019-06-15T21:36:13.725Z,5.00
2019-06-15T21:38:42.642Z,5.20
2019-06-15T21:41:11.532Z,5.97
2019-06-15T21:43:40.451Z,5.83
2019-06-15T21:46:09.395Z,5.87
2019-06-15T21:48:38.285Z,6.23
2019-06-15T21:51:08.087Z,6.23
2019-06-15T21:53:36.360Z,6.05
2019-06-15T21:56:07.155Z,6.33
2019-06-15T21:58:36.686Z,5.83
2019-06-15T22:01:23.003Z,6.10
2019-06-15T22:03:51.905Z,6.17
2019-06-15T22:06:20.805Z,5.87
2019-06-15T22:08:49.681Z,6.50
2019-06-15T22:11:18.581Z,6.27
2019-06-15T22:13:47.462Z,6.57
2019-06-15T22:16:17.101Z,6.27
2019-06-15T22:18:47.487Z,6.80
2019-06-15T22:21:16.137Z,6.33
2019-06-15T22:23:43.050Z,6.13
2019-06-15T22:26:11.960Z,5.70
2019-06-15T22:28:40.843Z,6.27
2019-06-15T22:31:09.727Z,6.37
2019-06-15T22:33:38.623Z,6.50
2019-06-15T22:36:20.891Z,5.80
2019-06-15T22:38:36.856Z,7.13
2019-06-15T22:41:06.028Z,6.30
2019-06-15T22:43:36.245Z,6.20
2019-06-15T22:46:03.182Z,6.07
2019-06-15T22:48:32.057Z,6.37
2019-06-15T22:51:00.960Z,5.87
2019-06-15T22:53:29.850Z,5.90
2019-06-15T22:55:58.748Z,4.97
2019-06-15T22:58:27.644Z,5.03
2019-06-15T23:00:56.855Z,5.23
2019-06-15T23:03:26.240Z,5.53
2019-06-15T23:05:56.987Z,5.17
2019-06-15T23:08:23.252Z,5.20
2019-06-15T23:10:52.194Z,5.63
2019-06-15T23:13:21.052Z,5.92
2019-06-15T23:15:49.942Z,5.53
2019-06-15T23:18:18.851Z,5.03
2019-06-15T23:20:47.740Z,5.23
2019-06-15T23:23:16.639Z,5.67
2019-06-15T23:25:47.186Z,5.50
2019-06-15T23:28:16.630Z,5.70
2019-06-15T23:30:43.605Z,6.13
2019-06-15T23:33:12.489Z,6.00
2019-06-15T23:35:46.546Z,5.70
2019-06-15T23:38:15.952Z,5.77
2019-06-15T23:40:42.966Z,6.00
2019-06-15T23:43:11.865Z,5.90
2019-06-15T23:45:40.746Z,6.10
2019-06-15T23:48:09.702Z,6.87
2019-06-15T23:50:38.592Z,6.00
2019-06-15T23:53:07.586Z,5.90
2019-06-15T23:55:36.668Z,6.95
2019-06-15T23:58:06.703Z,6.37
